createdAt,value
2024-05-09T00:03:07.134Z,9.20
2024-05-09T00:06:34.255Z,7.20
2024-05-09T00:10:05.527Z,8.00
2024-05-09T00:13:34.440Z,7.40
2024-05-09T00:17:00.907Z,9.80
2024-05-09T00:20:36.476Z,6.80
2024-05-09T00:24:07.637Z,11.30
2024-05-09T00:27:35.088Z,12.50
2024-05-09T00:31:03.489Z,10.70
2024-05-09T00:34:30.519Z,7.70
2024-05-09T00:37:59.084Z,10.10
2024-05-09T00:41:25.741Z,11.50
2024-05-09T00:44:53.235Z,9.50
2024-05-09T00:48:24.583Z,8.00
2024-05-09T00:51:55.457Z,10.10
2024-05-09T00:55:25.046Z,12.40
2024-05-09T00:58:54.763Z,10.40
2024-05-09T01:02:24.972Z,12.40
2024-05-09T01:05:57.934Z,9.10
2024-05-09T01:09:26.411Z,10.10
2024-05-09T01:12:53.655Z,10.10
2024-05-09T01:16:21.076Z,14.40
2024-05-09T01:19:51.080Z,12.80
2024-05-09T01:23:22.125Z,11.10
2024-05-09T01:26:49.417Z,13.00
2024-05-09T01:30:20.984Z,10.80
2024-05-09T01:33:51.830Z,7.50
2024-05-09T01:37:19.263Z,8.40
2024-05-09T01:40:47.011Z,9.60
2024-05-09T01:44:13.677Z,8.60
2024-05-09T01:47:40.606Z,10.80
2024-05-09T01:51:10.663Z,9.60
2024-05-09T01:54:37.620Z,8.60
2024-05-09T01:58:04.378Z,8.80
2024-05-09T02:01:31.486Z,8.70
2024-05-09T02:05:17.760Z,9.40
2024-05-09T02:08:47.670Z,8.60
2024-05-09T02:12:18.010Z,10.20
2024-05-09T02:15:45.395Z,12.20
2024-05-09T02:19:11.823Z,13.60
2024-05-09T02:22:38.748Z,14.20
2024-05-09T02:26:05.733Z,11.60
2024-05-09T02:29:32.370Z,14.10
2024-05-09T02:32:59.475Z,12.00
2024-05-09T02:36:25.914Z,11.50
2024-05-09T02:39:52.714Z,11.10
2024-05-09T02:43:19.497Z,13.70
2024-05-09T02:46:46.644Z,13.00
2024-05-09T02:50:16.234Z,26.80
2024-05-09T02:53:47.468Z,29.60
2024-05-09T02:57:13.378Z,33.40
2024-05-09T03:00:42.210Z,27.60
2024-05-09T03:04:10.894Z,25.80
2024-05-09T03:07:38.236Z,19.60
2024-05-09T03:11:05.147Z,18.20
2024-05-09T03:14:34.295Z,16.10
2024-05-09T03:18:01.716Z,13.90
2024-05-09T03:21:29.328Z,11.40
2024-05-09T03:24:57.088Z,15.60
2024-05-09T03:28:24.245Z,9.90
2024-05-09T03:31:51.506Z,13.80
2024-05-09T03:35:19.618Z,13.50
2024-05-09T03:38:45.808Z,10.30
2024-05-09T03:42:11.504Z,9.70
2024-05-09T03:45:37.203Z,10.40
2024-05-09T03:49:02.953Z,9.70
2024-05-09T03:52:28.827Z,13.70
2024-05-09T03:55:54.593Z,15.80
2024-05-09T03:59:20.515Z,12.10
2024-05-09T04:02:48.776Z,13.20
2024-05-09T04:06:23.081Z,9.30
2024-05-09T04:09:48.785Z,9.70
2024-05-09T04:13:14.465Z,9.30
2024-05-09T04:16:40.190Z,10.50
2024-05-09T04:20:10.488Z,7.90
2024-05-09T04:23:36.666Z,7.00
2024-05-09T04:27:02.568Z,11.60
2024-05-09T04:30:37.388Z,8.00
2024-05-09T04:34:06.248Z,11.10
2024-05-09T04:37:32.238Z,9.80
2024-05-09T04:40:58.430Z,9.90
2024-05-09T04:44:24.270Z,8.30
2024-05-09T04:47:50.154Z,10.70
2024-05-09T04:51:16.195Z,9.20
2024-05-09T04:54:42.069Z,10.90
2024-05-09T04:58:09.358Z,14.40
2024-05-09T05:01:35.180Z,8.20
2024-05-09T05:05:01.004Z,9.10
2024-05-09T05:08:26.892Z,6.70
2024-05-09T05:11:53.650Z,15.00
2024-05-09T05:15:19.728Z,7.90
2024-05-09T05:18:45.602Z,11.50
2024-05-09T05:22:11.426Z,9.60
2024-05-09T05:25:37.129Z,12.00
2024-05-09T05:29:03.117Z,12.30
2024-05-09T05:32:31.284Z,6.70
2024-05-09T05:35:57.787Z,9.90
2024-05-09T05:39:23.565Z,7.90
2024-05-09T05:42:49.728Z,8.50
2024-05-09T05:46:15.493Z,12.00
2024-05-09T05:49:41.391Z,7.30
2024-05-09T05:53:10.084Z,7.30
2024-05-09T05:56:36.476Z,5.30
2024-05-09T06:00:03.990Z,9.60
2024-05-09T06:03:38.048Z,6.60
2024-05-09T06:07:04.411Z,6.30
2024-05-09T06:10:37.586Z,7.10
2024-05-09T06:14:06.022Z,6.00
2024-05-09T06:17:31.976Z,4.10
2024-05-09T06:20:58.071Z,3.60
2024-05-09T06:24:23.861Z,3.40
2024-05-09T06:27:49.553Z,3.40
2024-05-09T06:31:15.335Z,3.10
2024-05-09T06:34:41.199Z,2.20
2024-05-09T06:38:09.510Z,4.50
2024-05-09T06:41:35.689Z,3.80
2024-05-09T06:45:01.589Z,5.00
2024-05-09T06:48:27.691Z,2.90
2024-05-09T06:51:53.608Z,5.90
2024-05-09T06:55:19.290Z,5.40
2024-05-09T06:58:45.029Z,3.20
2024-05-09T07:02:10.903Z,5.40
2024-05-09T07:05:36.740Z,6.60
2024-05-09T07:09:02.464Z,2.40
2024-05-09T07:12:28.323Z,5.60
2024-05-09T07:15:54.220Z,4.20
2024-05-09T07:19:20.750Z,4.40
2024-05-09T07:22:46.580Z,4.70
2024-05-09T07:26:12.384Z,6.60
2024-05-09T07:29:38.951Z,5.10
2024-05-09T07:33:05.284Z,8.20
2024-05-09T07:36:31.285Z,6.20
2024-05-09T07:39:57.200Z,5.90
2024-05-09T07:43:22.898Z,8.30
2024-05-09T07:47:48.763Z,6.90
2024-05-09T07:52:23.816Z,4.50
2024-05-09T07:54:22.018Z,6.90
2024-05-09T07:57:47.903Z,4.60
2024-05-09T08:01:13.772Z,6.40
2024-05-09T08:04:39.725Z,2.90
2024-05-09T08:08:07.737Z,5.40
2024-05-09T08:11:35.032Z,8.10
2024-05-09T08:15:00.839Z,4.10
2024-05-09T08:18:27.637Z,6.90
2024-05-09T08:21:53.560Z,2.70
2024-05-09T08:25:19.414Z,5.50
2024-05-09T08:28:45.313Z,9.10
2024-05-09T08:32:13.729Z,4.40
2024-05-09T08:35:39.727Z,6.10
2024-05-09T08:39:05.537Z,5.60
2024-05-09T08:42:37.751Z,7.90
2024-05-09T08:46:06.038Z,6.60
2024-05-09T08:49:32.136Z,8.00
2024-05-09T08:52:58.105Z,5.00
2024-05-09T08:56:28.615Z,5.10
2024-05-09T08:59:56.418Z,6.50
2024-05-09T09:03:27.404Z,4.10
2024-05-09T09:06:58.275Z,8.10
2024-05-09T09:10:31.633Z,4.40
2024-05-09T09:13:58.839Z,5.60
2024-05-09T09:17:24.661Z,3.00
2024-05-09T09:20:50.890Z,10.60
2024-05-09T09:24:16.801Z,3.30
2024-05-09T09:27:44.578Z,2.60
2024-05-09T09:31:10.395Z,5.70
2024-05-09T09:34:36.423Z,3.70
2024-05-09T09:38:05.730Z,2.50
2024-05-09T09:41:32.088Z,4.90
2024-05-09T09:45:04.700Z,4.30
2024-05-09T09:48:32.510Z,2.70
2024-05-09T09:52:00.174Z,3.50
2024-05-09T09:55:26.519Z,3.90
2024-05-09T09:58:53.696Z,9.60
2024-05-09T10:02:19.850Z,6.90
2024-05-09T10:05:47.524Z,7.00
2024-05-09T10:09:16.258Z,4.40
2024-05-09T10:12:52.512Z,5.20
2024-05-09T10:16:22.600Z,3.30
2024-05-09T10:19:48.767Z,4.80
2024-05-09T10:23:28.217Z,10.90
2024-05-09T10:26:54.620Z,9.90
2024-05-09T10:30:33.455Z,4.20
2024-05-09T10:34:03.388Z,5.30
2024-05-09T10:37:30.006Z,5.80
2024-05-09T10:41:00.662Z,5.50
2024-05-09T10:44:26.433Z,7.10
2024-05-09T10:47:52.444Z,3.30
2024-05-09T10:51:19.321Z,3.50
2024-05-09T10:54:49.348Z,8.00
2024-05-09T10:58:19.959Z,5.30
2024-05-09T11:01:46.176Z,4.90
2024-05-09T11:05:13.111Z,3.20
2024-05-09T11:08:39.651Z,5.60
2024-05-09T11:12:06.506Z,3.50
2024-05-09T11:15:40.829Z,2.80
2024-05-09T11:19:12.408Z,3.70
2024-05-09T11:22:38.319Z,4.50
2024-05-09T11:26:05.541Z,9.00
2024-05-09T11:29:39.860Z,4.60
2024-05-09T11:33:06.241Z,5.30
2024-05-09T11:36:32.153Z,6.20
2024-05-09T11:39:58.123Z,4.80
2024-05-09T11:43:23.996Z,5.10
2024-05-09T11:46:49.854Z,9.20
2024-05-09T11:50:22.671Z,6.90
2024-05-09T11:53:55.296Z,4.10
2024-05-09T11:57:21.292Z,4.80
2024-05-09T12:00:47.459Z,6.60
2024-05-09T12:04:13.471Z,5.00
2024-05-09T12:07:39.514Z,9.10
2024-05-09T12:11:05.769Z,4.60
2024-05-09T12:14:31.692Z,3.90
2024-05-09T12:18:00.028Z,8.20
2024-05-09T12:21:27.710Z,4.80
2024-05-09T12:24:55.676Z,3.90
2024-05-09T12:28:22.213Z,3.60
2024-05-09T12:31:48.158Z,5.20
2024-05-09T12:35:13.979Z,4.00
2024-05-09T12:38:40.812Z,5.90
2024-05-09T12:42:07.105Z,4.40
2024-05-09T12:45:32.974Z,6.10
2024-05-09T12:48:59.203Z,5.90
2024-05-09T12:52:25.378Z,10.20
2024-05-09T12:55:56.897Z,7.10
2024-05-09T12:59:26.293Z,8.10
2024-05-09T13:02:52.123Z,7.60
2024-05-09T13:06:17.920Z,5.20
2024-05-09T13:09:43.811Z,9.40
2024-05-09T13:13:11.448Z,6.20
2024-05-09T13:16:37.547Z,4.40
2024-05-09T13:20:04.403Z,8.90
2024-05-09T13:23:31.449Z,3.30
2024-05-09T13:26:57.340Z,9.30
2024-05-09T13:30:29.777Z,6.20
2024-05-09T13:34:04.316Z,5.40
2024-05-09T13:37:30.322Z,4.80
2024-05-09T13:40:56.087Z,4.30
2024-05-09T13:44:22.348Z,4.50
2024-05-09T13:47:48.423Z,4.00
2024-05-09T13:51:14.470Z,6.00
2024-05-09T13:54:40.292Z,6.90
2024-05-09T13:58:06.811Z,4.80
2024-05-09T14:01:32.880Z,10.00
2024-05-09T14:04:58.951Z,10.60
2024-05-09T14:08:24.972Z,8.50
2024-05-09T14:11:50.804Z,5.70
2024-05-09T14:15:16.667Z,3.60
2024-05-09T14:18:42.564Z,4.20
2024-05-09T14:22:09.039Z,3.80
2024-05-09T14:25:38.692Z,2.80
2024-05-09T14:29:07.393Z,4.40
2024-05-09T14:32:33.330Z,4.90
2024-05-09T14:35:59.605Z,5.60
2024-05-09T14:39:25.395Z,3.60
2024-05-09T14:42:51.291Z,7.10
2024-05-09T14:46:17.189Z,6.70
2024-05-09T14:49:43.175Z,6.90
2024-05-09T14:53:10.285Z,7.80
2024-05-09T14:56:36.364Z,6.60
2024-05-09T15:00:02.803Z,3.90
2024-05-09T15:03:29.840Z,13.00
2024-05-09T15:06:56.505Z,2.70
2024-05-09T15:10:31.099Z,6.60
2024-05-09T15:14:00.620Z,11.00
2024-05-09T15:17:26.527Z,5.20
2024-05-09T15:20:52.490Z,6.00
2024-05-09T15:24:18.441Z,5.30
2024-05-09T15:27:45.276Z,8.20
2024-05-09T15:31:11.085Z,6.10
2024-05-09T15:34:36.901Z,5.30
2024-05-09T15:38:05.802Z,11.90
2024-05-09T15:41:31.547Z,5.70
2024-05-09T15:44:57.422Z,4.20
2024-05-09T15:48:23.518Z,5.90
2024-05-09T15:51:49.367Z,9.00
2024-05-09T15:55:15.548Z,15.90
2024-05-09T15:58:41.419Z,9.70
2024-05-09T16:02:07.687Z,15.60
2024-05-09T16:05:33.873Z,7.70
2024-05-09T16:09:00.310Z,10.70
2024-05-09T16:12:26.138Z,8.20
2024-05-09T16:15:52.069Z,46.60
2024-05-09T16:19:18.134Z,11.90
2024-05-09T16:22:43.826Z,8.70
2024-05-09T16:26:09.602Z,28.30
2024-05-09T16:29:35.305Z,10.50
2024-05-09T16:33:01.112Z,9.50
2024-05-09T16:36:27.188Z,4.50
2024-05-09T16:39:52.904Z,6.00
2024-05-09T16:43:19.048Z,8.40
2024-05-09T16:46:45.035Z,4.20
2024-05-09T16:50:15.797Z,9.90
2024-05-09T16:53:44.920Z,8.50
2024-05-09T16:57:10.713Z,3.80
2024-05-09T17:00:41.462Z,5.70
2024-05-09T17:04:10.148Z,9.60
2024-05-09T17:07:36.173Z,7.50
2024-05-09T17:11:02.236Z,2.70
2024-05-09T17:14:28.127Z,4.20
2024-05-09T17:17:53.967Z,6.00
2024-05-09T17:21:20.003Z,11.70
2024-05-09T17:24:45.707Z,4.20
2024-05-09T17:28:12.412Z,7.10
2024-05-09T17:31:38.557Z,1.80
2024-05-09T17:35:04.752Z,3.10
2024-05-09T17:38:30.647Z,5.00
2024-05-09T17:41:56.345Z,3.90
2024-05-09T17:45:22.833Z,3.90
2024-05-09T17:48:48.596Z,13.30
2024-05-09T17:52:14.814Z,15.00
2024-05-09T17:55:41.365Z,7.50
2024-05-09T17:59:09.921Z,11.30
2024-05-09T18:06:02.077Z,9.00
2024-05-09T18:09:28.008Z,30.40
2024-05-09T18:12:53.777Z,12.40
2024-05-09T18:16:20.027Z,15.50
2024-05-09T18:19:45.894Z,12.10
2024-05-09T18:23:12.812Z,10.60
2024-05-09T18:26:39.074Z,15.90
2024-05-09T18:30:09.372Z,16.70
2024-05-09T18:33:35.663Z,35.60
2024-05-09T18:37:04.324Z,19.60
2024-05-09T18:40:34.621Z,15.90
2024-05-09T18:44:02.774Z,21.90
2024-05-09T18:47:28.641Z,26.50
2024-05-09T18:50:54.551Z,13.30
2024-05-09T18:54:20.800Z,12.80
2024-05-09T18:57:46.690Z,9.90
2024-05-09T19:01:13.123Z,18.10
2024-05-09T19:04:39.236Z,12.40
2024-05-09T19:08:05.894Z,12.00
2024-05-09T19:11:31.708Z,28.30
2024-05-09T19:14:57.665Z,17.60
2024-05-09T19:18:23.449Z,12.30
2024-05-09T19:21:49.395Z,13.60
2024-05-09T19:25:15.184Z,10.50
2024-05-09T19:28:41.015Z,26.60
2024-05-09T19:32:07.868Z,8.70
2024-05-09T19:35:33.708Z,12.70
2024-05-09T19:39:00.094Z,10.40
2024-05-09T19:42:27.333Z,13.80
2024-05-09T19:45:53.005Z,9.10
2024-05-09T19:49:18.994Z,12.40
2024-05-09T19:52:45.132Z,19.80
2024-05-09T19:56:10.887Z,8.30
2024-05-09T19:59:36.718Z,12.50
2024-05-09T20:03:02.685Z,11.10
2024-05-09T20:06:30.212Z,15.30
2024-05-09T20:09:55.977Z,14.10
2024-05-09T20:13:21.944Z,13.50
2024-05-09T20:16:48.679Z,8.10
2024-05-09T20:20:24.567Z,12.10
2024-05-09T20:23:59.084Z,10.80
2024-05-09T20:27:24.768Z,7.20
2024-05-09T20:30:50.546Z,9.90
2024-05-09T20:34:16.327Z,10.10
2024-05-09T20:37:42.155Z,7.90
2024-05-09T20:41:08.215Z,10.70
2024-05-09T20:44:34.495Z,10.80
2024-05-09T20:48:01.059Z,12.10
2024-05-09T20:51:29.902Z,12.70
2024-05-09T20:54:56.342Z,11.00
2024-05-09T20:58:22.757Z,9.10
2024-05-09T21:01:50.040Z,9.10
2024-05-09T21:05:18.833Z,17.10
2024-05-09T21:08:44.937Z,11.50
2024-05-09T21:12:10.879Z,12.70
2024-05-09T21:15:36.845Z,13.20
2024-05-09T21:19:02.938Z,18.20
2024-05-09T21:22:28.823Z,21.50
2024-05-09T21:25:54.620Z,18.60
2024-05-09T21:29:20.698Z,19.00
2024-05-09T21:32:46.656Z,16.70
2024-05-09T21:36:12.615Z,13.40
2024-05-09T21:39:38.567Z,18.50
2024-05-09T21:43:05.041Z,19.40
2024-05-09T21:46:30.997Z,17.50
2024-05-09T21:49:57.125Z,17.70
2024-05-09T21:53:22.952Z,12.80
2024-05-09T21:56:48.627Z,21.60
2024-05-09T22:00:28.096Z,21.00
2024-05-09T22:04:01.201Z,15.10
2024-05-09T22:07:27.165Z,17.10
2024-05-09T22:10:53.011Z,15.80
2024-05-09T22:14:19.806Z,22.00
2024-05-09T22:17:45.981Z,22.10
2024-05-09T22:21:11.869Z,16.40
2024-05-09T22:24:37.843Z,17.10
2024-05-09T22:28:04.541Z,19.20
2024-05-09T22:31:30.627Z,19.30
2024-05-09T22:34:56.721Z,18.40
2024-05-09T22:38:25.935Z,23.70
2024-05-09T22:41:51.926Z,24.50
2024-05-09T22:45:17.824Z,19.00
2024-05-09T22:48:43.768Z,26.20
2024-05-09T22:52:09.956Z,31.80
2024-05-09T22:55:35.841Z,26.30
2024-05-09T22:59:02.084Z,21.50
2024-05-09T23:02:28.086Z,24.60
2024-05-09T23:05:53.851Z,22.50
2024-05-09T23:09:19.566Z,29.70
2024-05-09T23:12:45.600Z,28.40
2024-05-09T23:16:11.734Z,25.20
2024-05-09T23:19:37.647Z,37.20
2024-05-09T23:23:03.674Z,28.30
2024-05-09T23:26:29.528Z,28.40
2024-05-09T23:29:55.196Z,27.60
2024-05-09T23:33:21.187Z,25.40
2024-05-09T23:36:47.023Z,23.10
2024-05-09T23:40:18.497Z,25.20
2024-05-09T23:43:45.080Z,25.10
2024-05-09T23:47:11.141Z,31.10
2024-05-09T23:50:38.912Z,28.50
2024-05-09T23:54:08.274Z,25.10
2024-05-09T23:57:34.039Z,16.90
